sensor_id;sensor_type;location;lat;lon;timestamp;pressure;altitude;pressure_sealevel;temperature;humidity
68948;BME280;55996;49.546;7.400;2023-12-14T00:01:51;97622.81;;;6.24;100.00
68948;BME280;55996;49.546;7.400;2023-12-14T00:04:16;97618.38;;;6.28;100.00
68948;BME280;55996;49.546;7.400;2023-12-14T00:06:42;97630.66;;;6.23;100.00
68948;BME280;55996;49.546;7.400;2023-12-14T00:09:07;97634.78;;;6.28;100.00
68948;BME280;55996;49.546;7.400;2023-12-14T00:11:37;97633.25;;;6.23;100.00
68948;BME280;55996;49.546;7.400;2023-12-14T00:14:03;97632.13;;;6.30;100.00
68948;BME280;55996;49.546;7.400;2023-12-14T00:16:28;97641.81;;;6.25;100.00
68948;BME280;55996;49.546;7.400;2023-12-14T00:18:54;97644.25;;;6.29;100.00
68948;BME280;55996;49.546;7.400;2023-12-14T00:21:19;97644.31;;;6.28;100.00
68948;BME280;55996;49.546;7.400;2023-12-14T00:23:44;97643.44;;;6.27;100.00
68948;BME280;55996;49.546;7.400;2023-12-14T00:26:10;97646.25;;;6.21;100.00
68948;BME280;55996;49.546;7.400;2023-12-14T00:28:35;97667.63;;;6.29;100.00
68948;BME280;55996;49.546;7.400;2023-12-14T00:31:01;97664.19;;;6.29;100.00
68948;BME280;55996;49.546;7.400;2023-12-14T00:33:26;97662.03;;;6.42;100.00
68948;BME280;55996;49.546;7.400;2023-12-14T00:35:51;97672.53;;;6.39;100.00
68948;BME280;55996;49.546;7.400;2023-12-14T00:38:16;97671.81;;;6.34;100.00
68948;BME280;55996;49.546;7.400;2023-12-14T00:40:42;97683.84;;;6.36;100.00
68948;BME280;55996;49.546;7.400;2023-12-14T00:43:07;97674.19;;;6.41;100.00
68948;BME280;55996;49.546;7.400;2023-12-14T00:45:32;97689.84;;;6.38;100.00
68948;BME280;55996;49.546;7.400;2023-12-14T00:47:58;97694.13;;;6.39;100.00
68948;BME280;55996;49.546;7.400;2023-12-14T00:50:23;97703.69;;;6.39;100.00
68948;BME280;55996;49.546;7.400;2023-12-14T00:52:49;97708.13;;;6.35;100.00
68948;BME280;55996;49.546;7.400;2023-12-14T00:55:14;97715.00;;;6.36;100.00
68948;BME280;55996;49.546;7.400;2023-12-14T00:57:39;97712.56;;;6.32;100.00
68948;BME280;55996;49.546;7.400;2023-12-14T01:00:05;97707.31;;;6.33;100.00
68948;BME280;55996;49.546;7.400;2023-12-14T01:02:31;97716.81;;;6.34;100.00
68948;BME280;55996;49.546;7.400;2023-12-14T01:04:56;97715.19;;;6.30;100.00
68948;BME280;55996;49.546;7.400;2023-12-14T01:07:22;97722.94;;;6.32;100.00
68948;BME280;55996;49.546;7.400;2023-12-14T01:09:47;97721.28;;;6.29;100.00
68948;BME280;55996;49.546;7.400;2023-12-14T01:12:12;97732.25;;;6.37;100.00
68948;BME280;55996;49.546;7.400;2023-12-14T01:14:38;97735.63;;;6.41;100.00
68948;BME280;55996;49.546;7.400;2023-12-14T01:17:03;97734.91;;;6.36;100.00
68948;BME280;55996;49.546;7.400;2023-12-14T01:19:29;97742.75;;;6.34;100.00
68948;BME280;55996;49.546;7.400;2023-12-14T01:21:54;97741.91;;;6.34;100.00
68948;BME280;55996;49.546;7.400;2023-12-14T01:24:20;97735.75;;;6.36;100.00
68948;BME280;55996;49.546;7.400;2023-12-14T01:26:45;97746.13;;;6.36;100.00
68948;BME280;55996;49.546;7.400;2023-12-14T01:29:11;97752.06;;;6.41;100.00
68948;BME280;55996;49.546;7.400;2023-12-14T01:31:36;97761.78;;;6.35;100.00
68948;BME280;55996;49.546;7.400;2023-12-14T01:34:02;97753.16;;;6.34;100.00
68948;BME280;55996;49.546;7.400;2023-12-14T01:36:27;97748.94;;;6.30;100.00
68948;BME280;55996;49.546;7.400;2023-12-14T01:38:52;97763.53;;;6.34;100.00
68948;BME280;55996;49.546;7.400;2023-12-14T01:41:18;97772.09;;;6.36;100.00
68948;BME280;55996;49.546;7.400;2023-12-14T01:43:44;97768.59;;;6.37;100.00
68948;BME280;55996;49.546;7.400;2023-12-14T01:46:10;97774.66;;;6.38;100.00
68948;BME280;55996;49.546;7.400;2023-12-14T01:48:35;97785.81;;;6.41;100.00
68948;BME280;55996;49.546;7.400;2023-12-14T01:51:01;97786.66;;;6.42;100.00
68948;BME280;55996;49.546;7.400;2023-12-14T01:53:26;97788.34;;;6.43;100.00
68948;BME280;55996;49.546;7.400;2023-12-14T01:55:52;97793.69;;;6.38;100.00
68948;BME280;55996;49.546;7.400;2023-12-14T01:58:17;97789.38;;;6.37;100.00
68948;BME280;55996;49.546;7.400;2023-12-14T02:03:32;97810.84;;;6.42;100.00
68948;BME280;55996;49.546;7.400;2023-12-14T02:05:57;97813.44;;;6.42;100.00
68948;BME280;55996;49.546;7.400;2023-12-14T02:08:24;97812.03;;;6.32;100.00
68948;BME280;55996;49.546;7.400;2023-12-14T02:10:49;97823.22;;;6.34;100.00
68948;BME280;55996;49.546;7.400;2023-12-14T02:13:15;97810.50;;;6.26;100.00
68948;BME280;55996;49.546;7.400;2023-12-14T02:15:40;97837.91;;;6.35;100.00
68948;BME280;55996;49.546;7.400;2023-12-14T02:18:05;97835.44;;;6.30;100.00
68948;BME280;55996;49.546;7.400;2023-12-14T02:20:31;97844.88;;;6.33;100.00
68948;BME280;55996;49.546;7.400;2023-12-14T02:22:56;97842.34;;;6.32;100.00
68948;BME280;55996;49.546;7.400;2023-12-14T02:25:23;97827.91;;;6.23;100.00
68948;BME280;55996;49.546;7.400;2023-12-14T02:27:49;97832.22;;;6.22;100.00
68948;BME280;55996;49.546;7.400;2023-12-14T02:30:16;97843.19;;;6.32;100.00
68948;BME280;55996;49.546;7.400;2023-12-14T02:32:41;97844.19;;;6.28;100.00
68948;BME280;55996;49.546;7.400;2023-12-14T02:35:08;97859.44;;;6.39;100.00
68948;BME280;55996;49.546;7.400;2023-12-14T02:37:33;97860.47;;;6.33;100.00
68948;BME280;55996;49.546;7.400;2023-12-14T02:39:59;97847.53;;;6.32;100.00
68948;BME280;55996;49.546;7.400;2023-12-14T02:42:26;97861.47;;;6.29;100.00
68948;BME280;55996;49.546;7.400;2023-12-14T02:44:53;97853.69;;;6.29;100.00
68948;BME280;55996;49.546;7.400;2023-12-14T02:47:19;97877.75;;;6.34;100.00
68948;BME280;55996;49.546;7.400;2023-12-14T02:49:44;97881.22;;;6.33;100.00
68948;BME280;55996;49.546;7.400;2023-12-14T02:52:09;97884.72;;;6.32;100.00
68948;BME280;55996;49.546;7.400;2023-12-14T02:54:38;97878.75;;;6.28;100.00
68948;BME280;55996;49.546;7.400;2023-12-14T02:57:03;97891.13;;;6.20;100.00
68948;BME280;55996;49.546;7.400;2023-12-14T02:59:29;97891.88;;;6.24;100.00
68948;BME280;55996;49.546;7.400;2023-12-14T03:01:54;97906.34;;;6.33;100.00
68948;BME280;55996;49.546;7.400;2023-12-14T03:04:19;97909.75;;;6.35;100.00
68948;BME280;55996;49.546;7.400;2023-12-14T03:06:45;97906.19;;;6.37;100.00
68948;BME280;55996;49.546;7.400;2023-12-14T03:09:10;97899.47;;;6.32;100.00
68948;BME280;55996;49.546;7.400;2023-12-14T03:11:35;97900.47;;;6.26;100.00
68948;BME280;55996;49.546;7.400;2023-12-14T03:14:01;97908.97;;;6.31;100.00
68948;BME280;55996;49.546;7.400;2023-12-14T03:16:26;97907.00;;;6.39;100.00
68948;BME280;55996;49.546;7.400;2023-12-14T03:18:51;97913.28;;;6.32;100.00
68948;BME280;55996;49.546;7.400;2023-12-14T03:21:19;97914.22;;;6.29;100.00
68948;BME280;55996;49.546;7.400;2023-12-14T03:23:44;97917.81;;;6.24;100.00
68948;BME280;55996;49.546;7.400;2023-12-14T03:26:10;97915.78;;;6.35;100.00
68948;BME280;55996;49.546;7.400;2023-12-14T03:28:35;97920.28;;;6.28;100.00
68948;BME280;55996;49.546;7.400;2023-12-14T03:31:01;97926.38;;;6.27;100.00
68948;BME280;55996;49.546;7.400;2023-12-14T03:33:26;97918.41;;;6.35;100.00
68948;BME280;55996;49.546;7.400;2023-12-14T03:35:51;97942.47;;;6.40;100.00
68948;BME280;55996;49.546;7.400;2023-12-14T03:38:17;97940.81;;;6.38;100.00
68948;BME280;55996;49.546;7.400;2023-12-14T03:40:42;97937.47;;;6.34;100.00
68948;BME280;55996;49.546;7.400;2023-12-14T03:43:07;97933.97;;;6.35;100.00
68948;BME280;55996;49.546;7.400;2023-12-14T03:45:33;97945.38;;;6.29;100.00
68948;BME280;55996;49.546;7.400;2023-12-14T03:47:58;97938.41;;;6.32;100.00
68948;BME280;55996;49.546;7.400;2023-12-14T03:50:23;97951.31;;;6.33;100.00
68948;BME280;55996;49.546;7.400;2023-12-14T03:52:49;97962.75;;;6.26;100.00
68948;BME280;55996;49.546;7.400;2023-12-14T03:55:14;97952.31;;;6.29;100.00
68948;BME280;55996;49.546;7.400;2023-12-14T03:57:40;97972.97;;;6.32;100.00
68948;BME280;55996;49.546;7.400;2023-12-14T04:00:10;97971.91;;;6.39;100.00
68948;BME280;55996;49.546;7.400;2023-12-14T04:02:36;97979.78;;;6.36;100.00
68948;BME280;55996;49.546;7.400;2023-12-14T04:05:01;97984.25;;;6.31;100.00
68948;BME280;55996;49.546;7.400;2023-12-14T04:07:26;97981.69;;;6.29;100.00
68948;BME280;55996;49.546;7.400;2023-12-14T04:09:52;97995.53;;;6.30;100.00
68948;BME280;55996;49.546;7.400;2023-12-14T04:12:18;97992.63;;;6.41;100.00
68948;BME280;55996;49.546;7.400;2023-12-14T04:14:43;97999.72;;;6.36;100.00
68948;BME280;55996;49.546;7.400;2023-12-14T04:17:10;97984.41;;;6.25;100.00
68948;BME280;55996;49.546;7.400;2023-12-14T04:19:38;98005.16;;;6.26;100.00
68948;BME280;55996;49.546;7.400;2023-12-14T04:22:04;98010.47;;;6.22;100.00
68948;BME280;55996;49.546;7.400;2023-12-14T04:24:29;98013.94;;;6.21;100.00
68948;BME280;55996;49.546;7.400;2023-12-14T04:26:55;98020.75;;;6.25;100.00
68948;BME280;55996;49.546;7.400;2023-12-14T04:29:20;98023.56;;;6.17;100.00
68948;BME280;55996;49.546;7.400;2023-12-14T04:31:46;98019.97;;;6.23;100.00
68948;BME280;55996;49.546;7.400;2023-12-14T04:34:11;98032.97;;;6.21;100.00
68948;BME280;55996;49.546;7.400;2023-12-14T04:36:40;98034.09;;;6.11;100.00
68948;BME280;55996;49.546;7.400;2023-12-14T04:39:06;98044.44;;;6.12;100.00
68948;BME280;55996;49.546;7.400;2023-12-14T04:41:31;98044.69;;;6.03;100.00
68948;BME280;55996;49.546;7.400;2023-12-14T04:43:57;98049.75;;;6.08;100.00
68948;BME280;55996;49.546;7.400;2023-12-14T04:46:22;98044.75;;;6.00;100.00
68948;BME280;55996;49.546;7.400;2023-12-14T04:48:47;98046.34;;;6.06;100.00
68948;BME280;55996;49.546;7.400;2023-12-14T04:51:13;98063.56;;;6.08;100.00
68948;BME280;55996;49.546;7.400;2023-12-14T04:53:38;98047.44;;;5.95;100.00
68948;BME280;55996;49.546;7.400;2023-12-14T04:56:04;98066.13;;;6.10;100.00
68948;BME280;55996;49.546;7.400;2023-12-14T04:58:30;98061.81;;;6.10;100.00
68948;BME280;55996;49.546;7.400;2023-12-14T05:00:55;98059.38;;;6.03;100.00
68948;BME280;55996;49.546;7.400;2023-12-14T05:03:20;98068.09;;;6.00;100.00
68948;BME280;55996;49.546;7.400;2023-12-14T05:05:46;98076.75;;;6.01;100.00
68948;BME280;55996;49.546;7.400;2023-12-14T05:08:11;98079.56;;;5.90;100.00
68948;BME280;55996;49.546;7.400;2023-12-14T05:10:36;98077.22;;;5.79;100.00
68948;BME280;55996;49.546;7.400;2023-12-14T05:13:02;98084.94;;;5.82;100.00
68948;BME280;55996;49.546;7.400;2023-12-14T05:15:27;98104.91;;;5.78;100.00
68948;BME280;55996;49.546;7.400;2023-12-14T05:17:52;98102.09;;;5.88;100.00
68948;BME280;55996;49.546;7.400;2023-12-14T05:20:18;98106.34;;;5.92;100.00
68948;BME280;55996;49.546;7.400;2023-12-14T05:22:45;98099.63;;;5.81;100.00
68948;BME280;55996;49.546;7.400;2023-12-14T05:25:10;98109.22;;;5.79;100.00
68948;BME280;55996;49.546;7.400;2023-12-14T05:27:36;98109.34;;;5.73;100.00
68948;BME280;55996;49.546;7.400;2023-12-14T05:30:01;98115.47;;;5.71;100.00
68948;BME280;55996;49.546;7.400;2023-12-14T05:32:27;98117.19;;;5.70;100.00
68948;BME280;55996;49.546;7.400;2023-12-14T05:34:53;98109.34;;;5.73;100.00
68948;BME280;55996;49.546;7.400;2023-12-14T05:37:18;98118.94;;;5.70;100.00
68948;BME280;55996;49.546;7.400;2023-12-14T05:39:44;98114.56;;;5.72;100.00
68948;BME280;55996;49.546;7.400;2023-12-14T05:42:10;98118.94;;;5.70;100.00
68948;BME280;55996;49.546;7.400;2023-12-14T05:44:36;98131.03;;;5.69;100.00
68948;BME280;55996;49.546;7.400;2023-12-14T05:47:01;98135.28;;;5.73;100.00
68948;BME280;55996;49.546;7.400;2023-12-14T05:49:26;98146.69;;;5.66;100.00
68948;BME280;55996;49.546;7.400;2023-12-14T05:51:52;98155.34;;;5.65;100.00
68948;BME280;55996;49.546;7.400;2023-12-14T05:54:17;98155.44;;;5.60;100.00
68948;BME280;55996;49.546;7.400;2023-12-14T05:56:43;98170.06;;;5.63;100.00
68948;BME280;55996;49.546;7.400;2023-12-14T05:59:08;98178.59;;;5.70;100.00
68948;BME280;55996;49.546;7.400;2023-12-14T06:01:33;98176.78;;;5.73;100.00
68948;BME280;55996;49.546;7.400;2023-12-14T06:03:59;98174.16;;;5.75;100.00
68948;BME280;55996;49.546;7.400;2023-12-14T06:06:24;98188.53;;;5.90;100.00
68948;BME280;55996;49.546;7.400;2023-12-14T06:08:49;98184.38;;;5.81;100.00
68948;BME280;55996;49.546;7.400;2023-12-14T06:11:15;98194.06;;;5.74;100.00
68948;BME280;55996;49.546;7.400;2023-12-14T06:13:40;98202.78;;;5.70;100.00
68948;BME280;55996;49.546;7.400;2023-12-14T06:16:06;98220.00;;;5.74;100.00
68948;BME280;55996;49.546;7.400;2023-12-14T06:18:37;98211.44;;;5.69;100.00
68948;BME280;55996;49.546;7.400;2023-12-14T06:21:05;98210.59;;;5.69;100.00
68948;BME280;55996;49.546;7.400;2023-12-14T06:23:30;98218.25;;;5.75;100.00
68948;BME280;55996;49.546;7.400;2023-12-14T06:25:55;98220.00;;;5.73;100.00
68948;BME280;55996;49.546;7.400;2023-12-14T06:28:21;98231.22;;;5.75;100.00
68948;BME280;55996;49.546;7.400;2023-12-14T06:30:46;98226.13;;;5.70;100.00
68948;BME280;55996;49.546;7.400;2023-12-14T06:33:11;98226.88;;;5.75;100.00
68948;BME280;55996;49.546;7.400;2023-12-14T06:35:37;98233.63;;;5.82;100.00
68948;BME280;55996;49.546;7.400;2023-12-14T06:38:02;98244.13;;;5.76;100.00
68948;BME280;55996;49.546;7.400;2023-12-14T06:40:27;98232.25;;;5.66;100.00
68948;BME280;55996;49.546;7.400;2023-12-14T06:42:53;98249.41;;;5.73;100.00
68948;BME280;55996;49.546;7.400;2023-12-14T06:45:18;98259.75;;;5.75;100.00
68948;BME280;55996;49.546;7.400;2023-12-14T06:47:44;98264.81;;;5.81;100.00
68948;BME280;55996;49.546;7.400;2023-12-14T06:50:11;98248.63;;;5.70;100.00
68948;BME280;55996;49.546;7.400;2023-12-14T06:52:38;98271.88;;;5.74;100.00
68948;BME280;55996;49.546;7.400;2023-12-14T06:55:03;98281.41;;;5.72;100.00
68948;BME280;55996;49.546;7.400;2023-12-14T06:57:29;98272.03;;;5.65;100.00
68948;BME280;55996;49.546;7.400;2023-12-14T06:59:54;98292.78;;;5.65;100.00
68948;BME280;55996;49.546;7.400;2023-12-14T07:02:20;98278.28;;;5.55;100.00
68948;BME280;55996;49.546;7.400;2023-12-14T07:04:45;98298.84;;;5.64;100.00
68948;BME280;55996;49.546;7.400;2023-12-14T07:07:11;98295.69;;;5.48;100.00
68948;BME280;55996;49.546;7.400;2023-12-14T07:09:38;98288.91;;;5.42;100.00
68948;BME280;55996;49.546;7.400;2023-12-14T07:12:03;98308.75;;;5.43;100.00
68948;BME280;55996;49.546;7.400;2023-12-14T07:14:29;98318.16;;;5.49;100.00
68948;BME280;55996;49.546;7.400;2023-12-14T07:16:54;98321.72;;;5.42;100.00
68948;BME280;55996;49.546;7.400;2023-12-14T07:19:19;98326.91;;;5.43;100.00
68948;BME280;55996;49.546;7.400;2023-12-14T07:21:45;98329.50;;;5.42;100.00
68948;BME280;55996;49.546;7.400;2023-12-14T07:24:10;98333.00;;;5.39;100.00
68948;BME280;55996;49.546;7.400;2023-12-14T07:26:36;98334.72;;;5.40;100.00
68948;BME280;55996;49.546;7.400;2023-12-14T07:29:01;98348.41;;;5.48;100.00
68948;BME280;55996;49.546;7.400;2023-12-14T07:31:26;98327.91;;;5.36;100.00
68948;BME280;55996;49.546;7.400;2023-12-14T07:33:54;98355.16;;;5.57;100.00
68948;BME280;55996;49.546;7.400;2023-12-14T07:36:20;98361.16;;;5.59;100.00
68948;BME280;55996;49.546;7.400;2023-12-14T07:38:47;98363.75;;;5.61;100.00
68948;BME280;55996;49.546;7.400;2023-12-14T07:41:13;98361.31;;;5.52;100.00
68948;BME280;55996;49.546;7.400;2023-12-14T07:43:38;98376.00;;;5.53;100.00
68948;BME280;55996;49.546;7.400;2023-12-14T07:46:03;98377.66;;;5.55;100.00
68948;BME280;55996;49.546;7.400;2023-12-14T07:48:29;98376.84;;;5.53;100.00
68948;BME280;55996;49.546;7.400;2023-12-14T07:50:54;98381.13;;;5.56;100.00
68948;BME280;55996;49.546;7.400;2023-12-14T07:53:20;98403.50;;;5.61;100.00
68948;BME280;55996;49.546;7.400;2023-12-14T07:55:46;98394.75;;;5.67;100.00
68948;BME280;55996;49.546;7.400;2023-12-14T07:58:11;98410.22;;;5.73;100.00
68948;BME280;55996;49.546;7.400;2023-12-14T08:00:38;98399.06;;;5.66;100.00
68948;BME280;55996;49.546;7.400;2023-12-14T08:03:03;98423.94;;;5.78;100.00
68948;BME280;55996;49.546;7.400;2023-12-14T08:05:29;98418.78;;;5.77;100.00
68948;BME280;55996;49.546;7.400;2023-12-14T08:07:54;98426.56;;;5.77;100.00
68948;BME280;55996;49.546;7.400;2023-12-14T08:10:19;98425.63;;;5.81;100.00
68948;BME280;55996;49.546;7.400;2023-12-14T08:12:45;98439.25;;;5.92;100.00
68948;BME280;55996;49.546;7.400;2023-12-14T08:15:12;98437.50;;;5.94;100.00
68948;BME280;55996;49.546;7.400;2023-12-14T08:17:38;98442.66;;;5.96;100.00
68948;BME280;55996;49.546;7.400;2023-12-14T08:20:03;98441.84;;;5.92;100.00
68948;BME280;55996;49.546;7.400;2023-12-14T08:22:34;98451.25;;;6.01;100.00
68948;BME280;55996;49.546;7.400;2023-12-14T08:24:59;98452.88;;;6.07;100.00
68948;BME280;55996;49.546;7.400;2023-12-14T08:27:24;98475.22;;;6.16;100.00
68948;BME280;55996;49.546;7.400;2023-12-14T08:29:50;98470.84;;;6.16;100.00
68948;BME280;55996;49.546;7.400;2023-12-14T08:32:15;98470.00;;;6.16;100.00
68948;BME280;55996;49.546;7.400;2023-12-14T08:34:40;98472.63;;;6.16;100.00
68948;BME280;55996;49.546;7.400;2023-12-14T08:37:06;98481.94;;;6.26;100.00
68948;BME280;55996;49.546;7.400;2023-12-14T08:39:31;98482.75;;;6.28;100.00
68948;BME280;55996;49.546;7.400;2023-12-14T08:41:57;98493.13;;;6.29;100.00
68948;BME280;55996;49.546;7.400;2023-12-14T08:44:22;98509.41;;;6.36;100.00
68948;BME280;55996;49.546;7.400;2023-12-14T08:46:48;98499.91;;;6.37;100.00
68948;BME280;55996;49.546;7.400;2023-12-14T08:49:14;98518.03;;;6.38;100.00
68948;BME280;55996;49.546;7.400;2023-12-14T08:51:41;98518.88;;;6.40;100.00
68948;BME280;55996;49.546;7.400;2023-12-14T08:54:07;98538.69;;;6.44;100.00
68948;BME280;55996;49.546;7.400;2023-12-14T08:56:32;98535.22;;;6.45;100.00
68948;BME280;55996;49.546;7.400;2023-12-14T08:58:58;98535.09;;;6.52;100.00
68948;BME280;55996;49.546;7.400;2023-12-14T09:01:25;98535.16;;;6.50;100.00
68948;BME280;55996;49.546;7.400;2023-12-14T09:03:50;98532.34;;;6.59;100.00
68948;BME280;55996;49.546;7.400;2023-12-14T09:06:17;98522.00;;;6.58;100.00
68948;BME280;55996;49.546;7.400;2023-12-14T09:08:44;98526.25;;;6.62;100.00
68948;BME280;55996;49.546;7.400;2023-12-14T09:11:09;98534.78;;;6.67;100.00
68948;BME280;55996;49.546;7.400;2023-12-14T09:13:34;98560.50;;;6.83;100.00
68948;BME280;55996;49.546;7.400;2023-12-14T09:16:00;98551.75;;;6.87;100.00
68948;BME280;55996;49.546;7.400;2023-12-14T09:18:25;98565.50;;;6.92;100.00
68948;BME280;55996;49.546;7.400;2023-12-14T09:20:50;98564.41;;;7.04;100.00
68948;BME280;55996;49.546;7.400;2023-12-14T09:23:16;98564.22;;;7.11;100.00
68948;BME280;55996;49.546;7.400;2023-12-14T09:25:42;98577.97;;;7.17;100.00
68948;BME280;55996;49.546;7.400;2023-12-14T09:28:07;98576.25;;;7.17;100.00
68948;BME280;55996;49.546;7.400;2023-12-14T09:30:33;98573.31;;;7.33;100.00
68948;BME280;55996;49.546;7.400;2023-12-14T09:32:58;98581.97;;;7.33;100.00
68948;BME280;55996;49.546;7.400;2023-12-14T09:35:23;98589.53;;;7.44;100.00
68948;BME280;55996;49.546;7.400;2023-12-14T09:37:49;98593.81;;;7.47;100.00
68948;BME280;55996;49.546;7.400;2023-12-14T09:40:15;98599.88;;;7.47;100.00
68948;BME280;55996;49.546;7.400;2023-12-14T09:42:41;98609.00;;;7.26;100.00
68948;BME280;55996;49.546;7.400;2023-12-14T09:45:08;98608.66;;;7.41;100.00
68948;BME280;55996;49.546;7.400;2023-12-14T09:47:35;98607.69;;;7.47;100.00
68948;BME280;55996;49.546;7.400;2023-12-14T09:50:00;98616.41;;;7.45;100.00
68948;BME280;55996;49.546;7.400;2023-12-14T09:52:26;98626.88;;;7.41;100.00
68948;BME280;55996;49.546;7.400;2023-12-14T09:54:51;98624.56;;;7.27;100.00
68948;BME280;55996;49.546;7.400;2023-12-14T09:57:20;98622.00;;;7.26;100.00
68948;BME280;55996;49.546;7.400;2023-12-14T09:59:55;98627.66;;;7.45;100.00
68948;BME280;55996;49.546;7.400;2023-12-14T10:02:25;98624.22;;;7.45;100.00
68948;BME280;55996;49.546;7.400;2023-12-14T10:04:52;98628.47;;;7.49;100.00
68948;BME280;55996;49.546;7.400;2023-12-14T10:07:18;98627.44;;;7.56;100.00
68948;BME280;55996;49.546;7.400;2023-12-14T10:09:44;98630.47;;;7.75;100.00
68948;BME280;55996;49.546;7.400;2023-12-14T10:12:10;98625.13;;;7.81;100.00
68948;BME280;55996;49.546;7.400;2023-12-14T10:14:36;98624.84;;;7.94;100.00
68948;BME280;55996;49.546;7.400;2023-12-14T10:17:21;98637.56;;;8.07;100.00
68948;BME280;55996;49.546;7.400;2023-12-14T10:19:49;98632.31;;;8.45;100.00
68948;BME280;55996;49.546;7.400;2023-12-14T10:22:15;98632.53;;;8.72;100.00
68948;BME280;55996;49.546;7.400;2023-12-14T10:24:43;98631.44;;;8.79;100.00
68948;BME280;55996;49.546;7.400;2023-12-14T10:27:09;98642.47;;;8.91;100.00
68948;BME280;55996;49.546;7.400;2023-12-14T10:29:39;98644.28;;;8.87;100.00
68948;BME280;55996;49.546;7.400;2023-12-14T10:32:05;98634.91;;;8.80;100.00
68948;BME280;55996;49.546;7.400;2023-12-14T10:34:35;98644.13;;;8.93;100.00
68948;BME280;55996;49.546;7.400;2023-12-14T10:37:01;98647.06;;;8.81;100.00
68948;BME280;55996;49.546;7.400;2023-12-14T10:39:30;98654.78;;;8.84;100.00
68948;BME280;55996;49.546;7.400;2023-12-14T10:41:56;98651.78;;;8.99;100.00
68948;BME280;55996;49.546;7.400;2023-12-14T10:44:25;98655.88;;;8.75;100.00
68948;BME280;55996;49.546;7.400;2023-12-14T10:46:55;98655.41;;;8.94;100.00
68948;BME280;55996;49.546;7.400;2023-12-14T10:49:24;98661.56;;;8.91;100.00
68948;BME280;55996;49.546;7.400;2023-12-14T10:51:52;98658.34;;;8.81;100.00
68948;BME280;55996;49.546;7.400;2023-12-14T10:54:20;98672.91;;;8.88;100.00
68948;BME280;55996;49.546;7.400;2023-12-14T10:56:46;98672.97;;;8.87;100.00
68948;BME280;55996;49.546;7.400;2023-12-14T10:59:15;98677.06;;;8.63;100.00
68948;BME280;55996;49.546;7.400;2023-12-14T11:01:41;98683.72;;;8.75;100.00
68948;BME280;55996;49.546;7.400;2023-12-14T11:04:07;98679.44;;;8.70;100.00
68948;BME280;55996;49.546;7.400;2023-12-14T11:06:38;98680.44;;;8.66;100.00
68948;BME280;55996;49.546;7.400;2023-12-14T11:09:06;98686.53;;;8.65;100.00
68948;BME280;55996;49.546;7.400;2023-12-14T11:14:13;98702.81;;;8.75;100.00
68948;BME280;55996;49.546;7.400;2023-12-14T11:16:39;98692.25;;;8.44;100.00
68948;BME280;55996;49.546;7.400;2023-12-14T11:21:46;98695.16;;;8.31;100.00
68948;BME280;55996;49.546;7.400;2023-12-14T11:24:12;98694.28;;;8.32;100.00
68948;BME280;55996;49.546;7.400;2023-12-14T11:26:37;98705.97;;;8.52;100.00
68948;BME280;55996;49.546;7.400;2023-12-14T11:29:03;98705.75;;;8.23;100.00
68948;BME280;55996;49.546;7.400;2023-12-14T11:31:29;98713.25;;;8.36;100.00
68948;BME280;55996;49.546;7.400;2023-12-14T11:33:55;98718.06;;;8.17;100.00
68948;BME280;55996;49.546;7.400;2023-12-14T11:36:26;98722.63;;;8.07;100.00
68948;BME280;55996;49.546;7.400;2023-12-14T11:38:51;98726.09;;;8.07;100.00
68948;BME280;55996;49.546;7.400;2023-12-14T11:41:22;98718.41;;;8.01;100.00
68948;BME280;55996;49.546;7.400;2023-12-14T11:43:50;98722.53;;;8.12;100.00
68948;BME280;55996;49.546;7.400;2023-12-14T11:46:16;98720.22;;;7.98;100.00
68948;BME280;55996;49.546;7.400;2023-12-14T11:48:44;98740.03;;;8.03;100.00
68948;BME280;55996;49.546;7.400;2023-12-14T11:51:10;98745.84;;;8.16;100.00
68948;BME280;55996;49.546;7.400;2023-12-14T11:53:36;98738.03;;;8.16;100.00
68948;BME280;55996;49.546;7.400;2023-12-14T11:56:04;98741.31;;;8.26;100.00
68948;BME280;55996;49.546;7.400;2023-12-14T11:58:31;98739.22;;;8.40;100.00
68948;BME280;55996;49.546;7.400;2023-12-14T12:01:13;98745.34;;;8.38;100.00
68948;BME280;55996;49.546;7.400;2023-12-14T12:03:38;98748.88;;;8.35;100.00
68948;BME280;55996;49.546;7.400;2023-12-14T12:06:04;98740.69;;;8.54;100.00
68948;BME280;55996;49.546;7.400;2023-12-14T12:08:30;98748.50;;;8.54;100.00
68948;BME280;55996;49.546;7.400;2023-12-14T12:10:56;98740.69;;;8.54;100.00
68948;BME280;55996;49.546;7.400;2023-12-14T12:13:22;98742.66;;;8.43;100.00
68948;BME280;55996;49.546;7.400;2023-12-14T12:15:47;98756.56;;;8.42;100.00
68948;BME280;55996;49.546;7.400;2023-12-14T12:18:14;98741.16;;;8.32;100.00
68948;BME280;55996;49.546;7.400;2023-12-14T12:20:40;98762.97;;;8.27;100.00
68948;BME280;55996;49.546;7.400;2023-12-14T12:23:07;98754.00;;;8.40;100.00
68948;BME280;55996;49.546;7.400;2023-12-14T12:25:33;98772.59;;;8.23;100.00
68948;BME280;55996;49.546;7.400;2023-12-14T12:28:00;98772.13;;;8.45;100.00
68948;BME280;55996;49.546;7.400;2023-12-14T12:30:26;98765.25;;;8.40;100.00
68948;BME280;55996;49.546;7.400;2023-12-14T12:32:52;98773.19;;;8.36;100.00
68948;BME280;55996;49.546;7.400;2023-12-14T12:35:21;98771.34;;;8.41;100.00
68948;BME280;55996;49.546;7.400;2023-12-14T12:37:47;98755.88;;;8.33;100.00
68948;BME280;55996;49.546;7.400;2023-12-14T12:40:21;98762.06;;;8.29;100.00
68948;BME280;55996;49.546;7.400;2023-12-14T12:42:48;98768.69;;;8.43;100.00
68948;BME280;55996;49.546;7.400;2023-12-14T12:45:15;98766.28;;;8.35;100.00
68948;BME280;55996;49.546;7.400;2023-12-14T12:47:42;98777.59;;;8.34;100.00
68948;BME280;55996;49.546;7.400;2023-12-14T12:50:08;98768.19;;;8.27;100.00
68948;BME280;55996;49.546;7.400;2023-12-14T12:52:33;98777.91;;;8.20;100.00
68948;BME280;55996;49.546;7.400;2023-12-14T12:54:59;98777.63;;;8.32;100.00
68948;BME280;55996;49.546;7.400;2023-12-14T12:57:25;98777.03;;;8.19;100.00
68948;BME280;55996;49.546;7.400;2023-12-14T12:59:50;98778.03;;;8.14;100.00
68948;BME280;55996;49.546;7.400;2023-12-14T13:02:16;98782.88;;;8.29;100.00